sensor_id;sensor_type;location;lat;lon;timestamp;temperature;humidity
1570;DHT22;778;50.120;8.698;2022-09-16T00:01:30;16.40;99.90
1570;DHT22;778;50.120;8.698;2022-09-16T00:03:58;16.30;99.90
1570;DHT22;778;50.120;8.698;2022-09-16T00:06:28;16.30;99.90
1570;DHT22;778;50.120;8.698;2022-09-16T00:08:59;16.30;99.90
1570;DHT22;778;50.120;8.698;2022-09-16T00:11:31;16.30;99.90
1570;DHT22;778;50.120;8.698;2022-09-16T00:14:01;16.20;99.90
1570;DHT22;778;50.120;8.698;2022-09-16T00:16:30;16.30;99.90
1570;DHT22;778;50.120;8.698;2022-09-16T00:18:59;16.30;99.90
1570;DHT22;778;50.120;8.698;2022-09-16T00:21:29;16.40;99.90
1570;DHT22;778;50.120;8.698;2022-09-16T00:23:59;16.40;99.90
1570;DHT22;778;50.120;8.698;2022-09-16T00:26:28;16.40;99.90
1570;DHT22;778;50.120;8.698;2022-09-16T00:28:57;16.30;99.90
1570;DHT22;778;50.120;8.698;2022-09-16T00:31:25;16.30;99.90
1570;DHT22;778;50.120;8.698;2022-09-16T00:33:54;16.20;99.90
1570;DHT22;778;50.120;8.698;2022-09-16T00:36:22;16.20;99.90
1570;DHT22;778;50.120;8.698;2022-09-16T00:38:51;16.10;99.90
1570;DHT22;778;50.120;8.698;2022-09-16T00:41:24;16.20;99.90
1570;DHT22;778;50.120;8.698;2022-09-16T00:43:55;16.30;99.90
1570;DHT22;778;50.120;8.698;2022-09-16T00:46:31;16.30;99.90
1570;DHT22;778;50.120;8.698;2022-09-16T00:49:09;16.20;99.90
1570;DHT22;778;50.120;8.698;2022-09-16T00:51:41;16.20;99.90
1570;DHT22;778;50.120;8.698;2022-09-16T00:54:10;16.20;99.90
1570;DHT22;778;50.120;8.698;2022-09-16T00:56:42;16.10;99.90
1570;DHT22;778;50.120;8.698;2022-09-16T00:59:15;16.10;99.90
1570;DHT22;778;50.120;8.698;2022-09-16T01:01:45;16.10;99.90
1570;DHT22;778;50.120;8.698;2022-09-16T01:04:17;16.10;99.90
1570;DHT22;778;50.120;8.698;2022-09-16T01:06:47;16.20;99.90
1570;DHT22;778;50.120;8.698;2022-09-16T01:09:17;16.10;99.90
1570;DHT22;778;50.120;8.698;2022-09-16T01:11:48;16.00;99.90
1570;DHT22;778;50.120;8.698;2022-09-16T01:14:16;16.00;99.90
1570;DHT22;778;50.120;8.698;2022-09-16T01:17:10;16.10;99.90
1570;DHT22;778;50.120;8.698;2022-09-16T01:19:54;16.00;99.90
1570;DHT22;778;50.120;8.698;2022-09-16T01:22:57;16.00;99.90
1570;DHT22;778;50.120;8.698;2022-09-16T01:25:44;16.00;99.90
1570;DHT22;778;50.120;8.698;2022-09-16T01:28:36;16.00;99.90
1570;DHT22;778;50.120;8.698;2022-09-16T01:31:17;15.90;99.90
1570;DHT22;778;50.120;8.698;2022-09-16T01:33:57;15.90;99.90
1570;DHT22;778;50.120;8.698;2022-09-16T01:36:38;16.00;99.90
1570;DHT22;778;50.120;8.698;2022-09-16T01:39:22;15.90;99.90
1570;DHT22;778;50.120;8.698;2022-09-16T01:42:09;15.90;99.90
1570;DHT22;778;50.120;8.698;2022-09-16T01:44:53;15.90;99.90
1570;DHT22;778;50.120;8.698;2022-09-16T01:47:33;15.90;99.90
1570;DHT22;778;50.120;8.698;2022-09-16T01:50:09;15.90;99.90
1570;DHT22;778;50.120;8.698;2022-09-16T01:52:46;15.80;99.90
1570;DHT22;778;50.120;8.698;2022-09-16T01:55:23;15.90;99.90
1570;DHT22;778;50.120;8.698;2022-09-16T01:57:58;15.80;99.90
1570;DHT22;778;50.120;8.698;2022-09-16T02:00:29;15.90;99.90
1570;DHT22;778;50.120;8.698;2022-09-16T02:03:02;15.90;99.90
1570;DHT22;778;50.120;8.698;2022-09-16T02:05:36;15.80;99.90
1570;DHT22;778;50.120;8.698;2022-09-16T02:08:10;15.80;99.90
1570;DHT22;778;50.120;8.698;2022-09-16T02:10:44;15.70;99.90
1570;DHT22;778;50.120;8.698;2022-09-16T02:13:19;15.90;99.90
1570;DHT22;778;50.120;8.698;2022-09-16T02:15:52;15.80;99.90
1570;DHT22;778;50.120;8.698;2022-09-16T02:18:27;15.70;99.90
1570;DHT22;778;50.120;8.698;2022-09-16T02:20:59;15.70;99.90
1570;DHT22;778;50.120;8.698;2022-09-16T02:23:32;15.70;99.90
1570;DHT22;778;50.120;8.698;2022-09-16T02:26:04;15.60;99.90
1570;DHT22;778;50.120;8.698;2022-09-16T02:28:36;15.70;99.90
1570;DHT22;778;50.120;8.698;2022-09-16T02:31:08;15.70;99.90
1570;DHT22;778;50.120;8.698;2022-09-16T02:33:43;15.70;99.90
1570;DHT22;778;50.120;8.698;2022-09-16T02:36:17;15.80;99.90
1570;DHT22;778;50.120;8.698;2022-09-16T02:38:50;15.90;99.90
1570;DHT22;778;50.120;8.698;2022-09-16T02:41:22;15.80;99.90
1570;DHT22;778;50.120;8.698;2022-09-16T02:43:50;15.90;99.90
1570;DHT22;778;50.120;8.698;2022-09-16T02:46:24;15.80;99.90
1570;DHT22;778;50.120;8.698;2022-09-16T02:49:01;15.80;99.90
1570;DHT22;778;50.120;8.698;2022-09-16T02:51:37;15.80;99.90
1570;DHT22;778;50.120;8.698;2022-09-16T02:54:19;15.90;99.90
1570;DHT22;778;50.120;8.698;2022-09-16T02:56:52;15.80;99.90
1570;DHT22;778;50.120;8.698;2022-09-16T02:59:21;15.60;99.90
1570;DHT22;778;50.120;8.698;2022-09-16T03:01:51;15.50;99.90
1570;DHT22;778;50.120;8.698;2022-09-16T03:04:20;15.60;99.90
1570;DHT22;778;50.120;8.698;2022-09-16T03:06:49;15.60;99.90
1570;DHT22;778;50.120;8.698;2022-09-16T03:09:17;15.50;99.90
1570;DHT22;778;50.120;8.698;2022-09-16T03:12:18;15.50;99.90
1570;DHT22;778;50.120;8.698;2022-09-16T03:18:31;15.50;99.90
1570;DHT22;778;50.120;8.698;2022-09-16T03:21:15;15.50;99.90
1570;DHT22;778;50.120;8.698;2022-09-16T03:23:56;15.40;99.90
1570;DHT22;778;50.120;8.698;2022-09-16T03:26:35;15.50;99.90
1570;DHT22;778;50.120;8.698;2022-09-16T03:29:13;15.50;99.90
1570;DHT22;778;50.120;8.698;2022-09-16T03:31:49;15.40;99.90
1570;DHT22;778;50.120;8.698;2022-09-16T03:34:25;15.40;99.90
1570;DHT22;778;50.120;8.698;2022-09-16T03:37:00;15.40;99.90
1570;DHT22;778;50.120;8.698;2022-09-16T03:39:30;15.40;99.90
1570;DHT22;778;50.120;8.698;2022-09-16T03:42:00;15.40;99.90
1570;DHT22;778;50.120;8.698;2022-09-16T03:44:31;15.40;99.90
1570;DHT22;778;50.120;8.698;2022-09-16T03:47:00;15.30;99.90
1570;DHT22;778;50.120;8.698;2022-09-16T03:49:29;15.30;99.90
1570;DHT22;778;50.120;8.698;2022-09-16T03:51:59;15.30;99.90
1570;DHT22;778;50.120;8.698;2022-09-16T03:54:27;15.30;99.90
1570;DHT22;778;50.120;8.698;2022-09-16T03:56:55;15.40;99.90
1570;DHT22;778;50.120;8.698;2022-09-16T03:59:24;15.30;99.90
1570;DHT22;778;50.120;8.698;2022-09-16T04:01:52;15.30;99.90
1570;DHT22;778;50.120;8.698;2022-09-16T04:04:21;15.30;99.90
1570;DHT22;778;50.120;8.698;2022-09-16T04:06:49;15.30;99.90
1570;DHT22;778;50.120;8.698;2022-09-16T04:09:19;15.20;99.90
1570;DHT22;778;50.120;8.698;2022-09-16T04:11:47;15.30;99.90
1570;DHT22;778;50.120;8.698;2022-09-16T04:14:15;15.20;99.90
1570;DHT22;778;50.120;8.698;2022-09-16T04:16:44;15.20;99.90
1570;DHT22;778;50.120;8.698;2022-09-16T04:19:13;15.30;99.90
1570;DHT22;778;50.120;8.698;2022-09-16T04:21:41;15.30;99.90
1570;DHT22;778;50.120;8.698;2022-09-16T04:24:10;15.30;99.90
1570;DHT22;778;50.120;8.698;2022-09-16T04:26:41;15.30;99.90
1570;DHT22;778;50.120;8.698;2022-09-16T04:29:09;15.20;99.90
1570;DHT22;778;50.120;8.698;2022-09-16T04:31:38;15.20;99.90
1570;DHT22;778;50.120;8.698;2022-09-16T04:34:06;15.30;99.90
1570;DHT22;778;50.120;8.698;2022-09-16T04:36:34;15.20;99.90
1570;DHT22;778;50.120;8.698;2022-09-16T04:39:03;15.20;99.90
1570;DHT22;778;50.120;8.698;2022-09-16T04:41:31;15.20;99.90
1570;DHT22;778;50.120;8.698;2022-09-16T04:44:01;15.20;99.90
1570;DHT22;778;50.120;8.698;2022-09-16T04:46:30;15.20;99.90
1570;DHT22;778;50.120;8.698;2022-09-16T04:48:59;15.20;99.90
1570;DHT22;778;50.120;8.698;2022-09-16T04:51:28;15.20;99.90
1570;DHT22;778;50.120;8.698;2022-09-16T04:53:58;15.10;99.90
1570;DHT22;778;50.120;8.698;2022-09-16T04:56:29;15.20;99.90
1570;DHT22;778;50.120;8.698;2022-09-16T04:59:01;15.20;99.90
1570;DHT22;778;50.120;8.698;2022-09-16T05:01:32;15.10;99.90
1570;DHT22;778;50.120;8.698;2022-09-16T05:04:03;15.10;99.90
1570;DHT22;778;50.120;8.698;2022-09-16T05:06:34;15.10;99.90
1570;DHT22;778;50.120;8.698;2022-09-16T05:09:04;15.10;99.90
1570;DHT22;778;50.120;8.698;2022-09-16T05:11:35;15.10;99.90
1570;DHT22;778;50.120;8.698;2022-09-16T05:14:07;15.10;99.90
1570;DHT22;778;50.120;8.698;2022-09-16T05:16:37;15.10;99.90
1570;DHT22;778;50.120;8.698;2022-09-16T05:19:05;15.00;99.90
1570;DHT22;778;50.120;8.698;2022-09-16T05:21:36;15.00;99.90
1570;DHT22;778;50.120;8.698;2022-09-16T05:24:06;15.00;99.90
1570;DHT22;778;50.120;8.698;2022-09-16T05:26:37;15.00;99.90
1570;DHT22;778;50.120;8.698;2022-09-16T05:29:09;15.00;99.90
1570;DHT22;778;50.120;8.698;2022-09-16T05:31:41;14.90;99.90
1570;DHT22;778;50.120;8.698;2022-09-16T05:34:14;14.90;99.90
1570;DHT22;778;50.120;8.698;2022-09-16T05:36:44;14.90;99.90
1570;DHT22;778;50.120;8.698;2022-09-16T05:39:14;14.90;99.90
1570;DHT22;778;50.120;8.698;2022-09-16T05:41:52;14.80;99.90
1570;DHT22;778;50.120;8.698;2022-09-16T05:44:23;14.90;99.90
1570;DHT22;778;50.120;8.698;2022-09-16T05:46:51;15.00;99.90
1570;DHT22;778;50.120;8.698;2022-09-16T05:49:20;14.90;99.90
1570;DHT22;778;50.120;8.698;2022-09-16T05:51:50;15.00;99.90
1570;DHT22;778;50.120;8.698;2022-09-16T05:54:19;15.00;99.90
1570;DHT22;778;50.120;8.698;2022-09-16T05:56:51;15.10;99.90
1570;DHT22;778;50.120;8.698;2022-09-16T05:59:19;15.00;99.90
1570;DHT22;778;50.120;8.698;2022-09-16T06:01:49;15.10;99.90
1570;DHT22;778;50.120;8.698;2022-09-16T06:04:18;15.10;99.90
1570;DHT22;778;50.120;8.698;2022-09-16T06:06:46;15.10;99.90
1570;DHT22;778;50.120;8.698;2022-09-16T06:09:17;15.20;99.90
1570;DHT22;778;50.120;8.698;2022-09-16T06:11:49;15.10;99.90
1570;DHT22;778;50.120;8.698;2022-09-16T06:14:28;15.00;99.90
1570;DHT22;778;50.120;8.698;2022-09-16T06:16:56;15.10;99.90
1570;DHT22;778;50.120;8.698;2022-09-16T06:19:24;15.10;99.90
1570;DHT22;778;50.120;8.698;2022-09-16T06:21:53;15.10;99.90
1570;DHT22;778;50.120;8.698;2022-09-16T06:24:21;15.20;99.90
1570;DHT22;778;50.120;8.698;2022-09-16T06:26:50;15.20;99.90
1570;DHT22;778;50.120;8.698;2022-09-16T06:29:18;15.30;99.90
1570;DHT22;778;50.120;8.698;2022-09-16T06:31:48;15.30;99.90
1570;DHT22;778;50.120;8.698;2022-09-16T06:34:16;15.30;99.90
1570;DHT22;778;50.120;8.698;2022-09-16T06:36:45;15.40;99.90
1570;DHT22;778;50.120;8.698;2022-09-16T06:39:15;15.40;99.90
1570;DHT22;778;50.120;8.698;2022-09-16T06:41:44;15.40;99.90
1570;DHT22;778;50.120;8.698;2022-09-16T06:44:12;15.40;99.90
1570;DHT22;778;50.120;8.698;2022-09-16T06:46:41;15.40;99.90
1570;DHT22;778;50.120;8.698;2022-09-16T06:49:11;15.50;99.90
1570;DHT22;778;50.120;8.698;2022-09-16T06:51:39;15.50;99.90
1570;DHT22;778;50.120;8.698;2022-09-16T06:54:09;15.60;99.90
1570;DHT22;778;50.120;8.698;2022-09-16T06:56:38;15.50;99.90
1570;DHT22;778;50.120;8.698;2022-09-16T06:59:08;15.60;99.90
1570;DHT22;778;50.120;8.698;2022-09-16T07:01:37;15.60;99.90
1570;DHT22;778;50.120;8.698;2022-09-16T07:04:07;15.60;99.90
1570;DHT22;778;50.120;8.698;2022-09-16T07:06:40;15.70;99.90
1570;DHT22;778;50.120;8.698;2022-09-16T07:09:29;15.60;99.90
1570;DHT22;778;50.120;8.698;2022-09-16T07:11:58;15.70;99.90
1570;DHT22;778;50.120;8.698;2022-09-16T07:14:27;15.70;99.90
1570;DHT22;778;50.120;8.698;2022-09-16T07:16:58;15.90;99.90
1570;DHT22;778;50.120;8.698;2022-09-16T07:19:27;15.70;99.90
1570;DHT22;778;50.120;8.698;2022-09-16T07:21:57;15.80;99.90
1570;DHT22;778;50.120;8.698;2022-09-16T07:24:25;15.90;99.90
1570;DHT22;778;50.120;8.698;2022-09-16T07:26:54;16.00;99.90
1570;DHT22;778;50.120;8.698;2022-09-16T07:29:22;16.20;99.90
1570;DHT22;778;50.120;8.698;2022-09-16T07:31:51;16.20;99.90
1570;DHT22;778;50.120;8.698;2022-09-16T07:34:19;16.20;99.90
1570;DHT22;778;50.120;8.698;2022-09-16T07:36:48;16.30;99.90
1570;DHT22;778;50.120;8.698;2022-09-16T07:39:18;16.80;99.90
1570;DHT22;778;50.120;8.698;2022-09-16T07:41:47;17.30;99.90
1570;DHT22;778;50.120;8.698;2022-09-16T07:44:17;17.80;99.90
1570;DHT22;778;50.120;8.698;2022-09-16T07:46:46;18.20;99.90
1570;DHT22;778;50.120;8.698;2022-09-16T07:49:17;18.40;99.90
1570;DHT22;778;50.120;8.698;2022-09-16T07:51:45;18.70;99.90
1570;DHT22;778;50.120;8.698;2022-09-16T07:54:16;18.80;99.90
1570;DHT22;778;50.120;8.698;2022-09-16T07:56:47;18.70;99.90
1570;DHT22;778;50.120;8.698;2022-09-16T07:59:17;18.80;99.90
1570;DHT22;778;50.120;8.698;2022-09-16T08:01:47;18.90;99.90
1570;DHT22;778;50.120;8.698;2022-09-16T08:04:17;18.70;99.90
1570;DHT22;778;50.120;8.698;2022-09-16T08:06:46;18.40;99.90
1570;DHT22;778;50.120;8.698;2022-09-16T08:09:15;18.30;99.90
1570;DHT22;778;50.120;8.698;2022-09-16T08:12:06;18.50;99.90
1570;DHT22;778;50.120;8.698;2022-09-16T08:14:36;18.70;99.90
1570;DHT22;778;50.120;8.698;2022-09-16T08:17:05;19.00;99.90
1570;DHT22;778;50.120;8.698;2022-09-16T08:19:33;19.60;99.90
1570;DHT22;778;50.120;8.698;2022-09-16T08:22:04;19.70;99.90
1570;DHT22;778;50.120;8.698;2022-09-16T08:24:32;19.90;99.90
1570;DHT22;778;50.120;8.698;2022-09-16T08:27:01;19.70;99.90
1570;DHT22;778;50.120;8.698;2022-09-16T08:29:32;19.70;99.90
1570;DHT22;778;50.120;8.698;2022-09-16T08:32:00;19.70;99.90
1570;DHT22;778;50.120;8.698;2022-09-16T08:34:29;19.80;99.90
1570;DHT22;778;50.120;8.698;2022-09-16T08:36:57;19.50;99.90
1570;DHT22;778;50.120;8.698;2022-09-16T08:39:26;19.00;99.90
1570;DHT22;778;50.120;8.698;2022-09-16T08:45:12;19.10;99.90
1570;DHT22;778;50.120;8.698;2022-09-16T08:47:55;19.10;99.90
1570;DHT22;778;50.120;8.698;2022-09-16T08:50:37;19.20;99.90
1570;DHT22;778;50.120;8.698;2022-09-16T08:53:14;19.20;99.90
1570;DHT22;778;50.120;8.698;2022-09-16T08:55:46;18.70;99.90
1570;DHT22;778;50.120;8.698;2022-09-16T08:58:17;18.50;99.90
1570;DHT22;778;50.120;8.698;2022-09-16T09:00:53;18.70;99.90
1570;DHT22;778;50.120;8.698;2022-09-16T09:03:32;19.30;99.90
1570;DHT22;778;50.120;8.698;2022-09-16T09:06:10;19.50;99.90
1570;DHT22;778;50.120;8.698;2022-09-16T09:08:51;20.00;99.90
1570;DHT22;778;50.120;8.698;2022-09-16T09:11:32;20.10;93.60
1570;DHT22;778;50.120;8.698;2022-09-16T09:14:15;20.30;94.90
1570;DHT22;778;50.120;8.698;2022-09-16T09:16:54;20.70;91.00
1570;DHT22;778;50.120;8.698;2022-09-16T09:19:34;20.90;91.80
1570;DHT22;778;50.120;8.698;2022-09-16T09:22:18;21.00;90.30
1570;DHT22;778;50.120;8.698;2022-09-16T09:25:01;21.00;90.10
1570;DHT22;778;50.120;8.698;2022-09-16T09:27:45;20.60;89.40
1570;DHT22;778;50.120;8.698;2022-09-16T09:30:23;20.10;90.60
1570;DHT22;778;50.120;8.698;2022-09-16T09:33:13;20.70;90.10
1570;DHT22;778;50.120;8.698;2022-09-16T09:36:31;20.50;90.00
1570;DHT22;778;50.120;8.698;2022-09-16T09:39:22;20.00;91.80
1570;DHT22;778;50.120;8.698;2022-09-16T09:42:02;19.20;91.80
1570;DHT22;778;50.120;8.698;2022-09-16T09:44:44;18.80;95.10
1570;DHT22;778;50.120;8.698;2022-09-16T09:47:18;18.90;95.80
1570;DHT22;778;50.120;8.698;2022-09-16T09:49:55;18.90;95.00
1570;DHT22;778;50.120;8.698;2022-09-16T09:52:29;18.90;97.60
1570;DHT22;778;50.120;8.698;2022-09-16T09:55:12;19.10;95.90
1570;DHT22;778;50.120;8.698;2022-09-16T10:00:38;19.20;96.80
1570;DHT22;778;50.120;8.698;2022-09-16T10:03:10;19.00;96.10
1570;DHT22;778;50.120;8.698;2022-09-16T10:05:42;19.00;95.50
1570;DHT22;778;50.120;8.698;2022-09-16T10:08:17;19.00;94.60
1570;DHT22;778;50.120;8.698;2022-09-16T10:10:53;18.70;95.20
1570;DHT22;778;50.120;8.698;2022-09-16T10:13:24;18.70;95.10
1570;DHT22;778;50.120;8.698;2022-09-16T10:16:04;18.60;95.50
1570;DHT22;778;50.120;8.698;2022-09-16T10:18:36;18.40;96.50
1570;DHT22;778;50.120;8.698;2022-09-16T10:21:09;18.40;96.20
1570;DHT22;778;50.120;8.698;2022-09-16T10:23:39;18.20;96.90
1570;DHT22;778;50.120;8.698;2022-09-16T10:26:19;18.00;98.30
1570;DHT22;778;50.120;8.698;2022-09-16T10:28:58;18.20;98.80
1570;DHT22;778;50.120;8.698;2022-09-16T10:31:33;18.20;99.60
1570;DHT22;778;50.120;8.698;2022-09-16T10:34:11;18.20;99.60
1570;DHT22;778;50.120;8.698;2022-09-16T10:36:45;18.20;99.90
1570;DHT22;778;50.120;8.698;2022-09-16T10:39:22;18.30;98.80
1570;DHT22;778;50.120;8.698;2022-09-16T10:41:52;18.00;99.90
1570;DHT22;778;50.120;8.698;2022-09-16T10:44:23;18.10;99.90
1570;DHT22;778;50.120;8.698;2022-09-16T10:46:56;18.20;99.90
1570;DHT22;778;50.120;8.698;2022-09-16T10:49:34;18.00;99.90
1570;DHT22;778;50.120;8.698;2022-09-16T10:52:13;18.00;99.90
1570;DHT22;778;50.120;8.698;2022-09-16T10:54:44;17.90;99.90
1570;DHT22;778;50.120;8.698;2022-09-16T10:57:22;18.00;99.90
1570;DHT22;778;50.120;8.698;2022-09-16T10:59:59;17.90;99.90
1570;DHT22;778;50.120;8.698;2022-09-16T11:03:00;17.90;99.90
1570;DHT22;778;50.120;8.698;2022-09-16T11:05:51;17.90;99.90
1570;DHT22;778;50.120;8.698;2022-09-16T11:08:39;18.00;99.90
1570;DHT22;778;50.120;8.698;2022-09-16T11:11:21;18.20;99.90
1570;DHT22;778;50.120;8.698;2022-09-16T11:14:06;18.20;99.90
1570;DHT22;778;50.120;8.698;2022-09-16T11:20:04;19.60;98.50
1570;DHT22;778;50.120;8.698;2022-09-16T11:22:54;19.80;94.80
1570;DHT22;778;50.120;8.698;2022-09-16T11:25:37;19.40;96.30
1570;DHT22;778;50.120;8.698;2022-09-16T11:31:34;18.90;98.30
1570;DHT22;778;50.120;8.698;2022-09-16T11:34:15;18.90;97.50
1570;DHT22;778;50.120;8.698;2022-09-16T11:36:59;18.60;98.80
1570;DHT22;778;50.120;8.698;2022-09-16T11:39:45;18.70;98.60
1570;DHT22;778;50.120;8.698;2022-09-16T11:42:34;18.60;99.00
1570;DHT22;778;50.120;8.698;2022-09-16T11:45:17;18.80;99.20
1570;DHT22;778;50.120;8.698;2022-09-16T11:48:08;18.90;99.90
1570;DHT22;778;50.120;8.698;2022-09-16T11:51:01;18.80;99.20
1570;DHT22;778;50.120;8.698;2022-09-16T11:53:46;18.60;99.60
1570;DHT22;778;50.120;8.698;2022-09-16T11:56:33;18.30;99.90
1570;DHT22;778;50.120;8.698;2022-09-16T11:59:12;18.00;99.90
1570;DHT22;778;50.120;8.698;2022-09-16T12:01:48;17.30;99.90
1570;DHT22;778;50.120;8.698;2022-09-16T12:04:24;16.80;99.90
1570;DHT22;778;50.120;8.698;2022-09-16T12:06:58;16.70;99.90
1570;DHT22;778;50.120;8.698;2022-09-16T12:09:36;16.60;99.90
1570;DHT22;778;50.120;8.698;2022-09-16T12:12:13;16.50;99.90
1570;DHT22;778;50.120;8.698;2022-09-16T12:14:50;16.10;99.90
1570;DHT22;778;50.120;8.698;2022-09-16T12:17:24;16.00;99.90
1570;DHT22;778;50.120;8.698;2022-09-16T12:19:58;16.20;99.90
1570;DHT22;778;50.120;8.698;2022-09-16T12:22:30;16.10;99.90
1570;DHT22;778;50.120;8.698;2022-09-16T12:25:07;16.10;99.90
1570;DHT22;778;50.120;8.698;2022-09-16T12:27:43;16.20;99.90
1570;DHT22;778;50.120;8.698;2022-09-16T12:30:18;16.10;99.90
1570;DHT22;778;50.120;8.698;2022-09-16T12:32:56;16.20;99.90
1570;DHT22;778;50.120;8.698;2022-09-16T12:35:32;16.00;99.90
1570;DHT22;778;50.120;8.698;2022-09-16T12:38:01;16.40;99.90
1570;DHT22;778;50.120;8.698;2022-09-16T12:40:35;16.70;99.90
1570;DHT22;778;50.120;8.698;2022-09-16T12:47:01;16.70;99.90
1570;DHT22;778;50.120;8.698;2022-09-16T12:50:36;16.90;99.90
1570;DHT22;778;50.120;8.698;2022-09-16T12:53:36;17.00;99.90
1570;DHT22;778;50.120;8.698;2022-09-16T12:56:25;16.90;99.90
1570;DHT22;778;50.120;8.698;2022-09-16T12:59:34;17.20;99.90
1570;DHT22;778;50.120;8.698;2022-09-16T13:02:15;17.20;99.90
1570;DHT22;778;50.120;8.698;2022-09-16T13:04:48;17.40;99.90
1570;DHT22;778;50.120;8.698;2022-09-16T13:07:21;17.50;99.90
1570;DHT22;778;50.120;8.698;2022-09-16T13:10:00;17.60;99.90
1570;DHT22;778;50.120;8.698;2022-09-16T13:12:31;17.70;99.90
1570;DHT22;778;50.120;8.698;2022-09-16T13:15:23;17.80;99.90
1570;DHT22;778;50.120;8.698;2022-09-16T13:17:58;17.80;99.90
1570;DHT22;778;50.120;8.698;2022-09-16T13:20:39;17.90;99.90
1570;DHT22;778;50.120;8.698;2022-09-16T13:23:13;18.00;99.90
1570;DHT22;778;50.120;8.698;2022-09-16T13:25:48;18.00;99.90
1570;DHT22;778;50.120;8.698;2022-09-16T13:28:23;18.00;99.90
1570;DHT22;778;50.120;8.698;2022-09-16T13:30:54;18.10;99.90
1570;DHT22;778;50.120;8.698;2022-09-16T13:33:28;18.10;99.90
1570;DHT22;778;50.120;8.698;2022-09-16T13:36:14;18.30;99.90
1570;DHT22;778;50.120;8.698;2022-09-16T13:39:00;18.40;99.90
1570;DHT22;778;50.120;8.698;2022-09-16T13:41:33;18.30;99.90
1570;DHT22;778;50.120;8.698;2022-09-16T13:44:29;18.30;99.90
1570;DHT22;778;50.120;8.698;2022-09-16T13:47:15;18.40;99.90
1570;DHT22;778;50.120;8.698;2022-09-16T13:49:49;18.20;99.90
1570;DHT22;778;50.120;8.698;2022-09-16T13:52:20;18.10;99.90
1570;DHT22;778;50.120;8.698;2022-09-16T13:54:53;18.10;99.90
1570;DHT22;778;50.120;8.698;2022-09-16T13:57:49;18.10;99.90
1570;DHT22;778;50.120;8.698;2022-09-16T14:00:25;18.10;99.90
1570;DHT22;778;50.120;8.698;2022-09-16T14:03:25;18.00;99.90
1570;DHT22;778;50.120;8.698;2022-09-16T14:06:13;17.80;99.90
1570;DHT22;778;50.120;8.698;2022-09-16T14:08:55;17.70;99.90
1570;DHT22;778;50.120;8.698;2022-09-16T14:11:31;17.70;99.90
1570;DHT22;778;50.120;8.698;2022-09-16T14:14:04;17.80;99.90
1570;DHT22;778;50.120;8.698;2022-09-16T14:16:50;17.80;99.90
1570;DHT22;778;50.120;8.698;2022-09-16T14:19:23;17.70;99.90
1570;DHT22;778;50.120;8.698;2022-09-16T14:22:02;17.70;99.90
1570;DHT22;778;50.120;8.698;2022-09-16T14:24:34;17.60;99.90
1570;DHT22;778;50.120;8.698;2022-09-16T14:27:05;17.60;99.90
1570;DHT22;778;50.120;8.698;2022-09-16T14:29:56;17.60;99.90
1570;DHT22;778;50.120;8.698;2022-09-16T14:32:28;17.60;99.90
1570;DHT22;778;50.120;8.698;2022-09-16T14:35:01;17.60;99.90
1570;DHT22;778;50.120;8.698;2022-09-16T14:37:33;17.80;99.90
1570;DHT22;778;50.120;8.698;2022-09-16T14:40:04;18.10;99.90
1570;DHT22;778;50.120;8.698;2022-09-16T14:42:37;18.10;99.90
1570;DHT22;778;50.120;8.698;2022-09-16T14:45:12;18.10;99.90
1570;DHT22;778;50.120;8.698;2022-09-16T14:47:43;18.20;99.90
1570;DHT22;778;50.120;8.698;2022-09-16T14:50:20;18.30;99.90
1570;DHT22;778;50.120;8.698;2022-09-16T14:52:56;18.30;99.90
1570;DHT22;778;50.120;8.698;2022-09-16T14:55:26;18.10;99.90
1570;DHT22;778;50.120;8.698;2022-09-16T14:57:57;18.10;99.90
1570;DHT22;778;50.120;8.698;2022-09-16T15:00:28;18.10;99.90
1570;DHT22;778;50.120;8.698;2022-09-16T15:03:01;18.10;99.90
1570;DHT22;778;50.120;8.698;2022-09-16T15:05:33;18.20;99.90
1570;DHT22;778;50.120;8.698;2022-09-16T15:08:09;18.20;99.90
1570;DHT22;778;50.120;8.698;2022-09-16T15:10:45;18.10;99.90
1570;DHT22;778;50.120;8.698;2022-09-16T15:13:21;18.10;99.90
1570;DHT22;778;50.120;8.698;2022-09-16T15:15:53;18.20;99.90
1570;DHT22;778;50.120;8.698;2022-09-16T15:18:26;18.20;99.90
1570;DHT22;778;50.120;8.698;2022-09-16T15:21:02;18.30;99.90
1570;DHT22;778;50.120;8.698;2022-09-16T15:23:35;18.10;99.90
1570;DHT22;778;50.120;8.698;2022-09-16T15:26:11;18.10;99.90
1570;DHT22;778;50.120;8.698;2022-09-16T15:28:52;17.70;99.90
1570;DHT22;778;50.120;8.698;2022-09-16T15:31:40;17.30;99.90
1570;DHT22;778;50.120;8.698;2022-09-16T15:34:20;17.00;99.90
1570;DHT22;778;50.120;8.698;2022-09-16T15:36:59;16.90;99.90
1570;DHT22;778;50.120;8.698;2022-09-16T15:39:31;16.70;99.90
1570;DHT22;778;50.120;8.698;2022-09-16T15:42:10;16.50;99.90
1570;DHT22;778;50.120;8.698;2022-09-16T15:44:45;16.30;99.90
1570;DHT22;778;50.120;8.698;2022-09-16T15:47:17;16.30;99.90
1570;DHT22;778;50.120;8.698;2022-09-16T15:49:49;16.30;99.90
1570;DHT22;778;50.120;8.698;2022-09-16T15:52:20;16.20;99.90
1570;DHT22;778;50.120;8.698;2022-09-16T15:54:52;16.10;99.90
1570;DHT22;778;50.120;8.698;2022-09-16T15:57:28;16.00;99.90
1570;DHT22;778;50.120;8.698;2022-09-16T16:00:01;15.90;99.90
1570;DHT22;778;50.120;8.698;2022-09-16T16:02:40;16.00;99.90
1570;DHT22;778;50.120;8.698;2022-09-16T16:05:13;15.70;99.90
1570;DHT22;778;50.120;8.698;2022-09-16T16:07:44;15.60;99.90
1570;DHT22;778;50.120;8.698;2022-09-16T16:10:17;15.60;99.90
1570;DHT22;778;50.120;8.698;2022-09-16T16:12:47;15.50;99.90
1570;DHT22;778;50.120;8.698;2022-09-16T16:15:17;15.70;99.90
1570;DHT22;778;50.120;8.698;2022-09-16T16:17:47;15.40;99.90
1570;DHT22;778;50.120;8.698;2022-09-16T16:20:16;15.30;99.90
1570;DHT22;778;50.120;8.698;2022-09-16T16:22:45;15.30;99.90
1570;DHT22;778;50.120;8.698;2022-09-16T16:25:16;15.50;99.90
1570;DHT22;778;50.120;8.698;2022-09-16T16:27:44;15.60;99.90
1570;DHT22;778;50.120;8.698;2022-09-16T16:30:13;15.40;99.90
1570;DHT22;778;50.120;8.698;2022-09-16T16:32:41;15.40;99.90
1570;DHT22;778;50.120;8.698;2022-09-16T16:35:10;15.60;99.90
1570;DHT22;778;50.120;8.698;2022-09-16T16:37:38;15.70;99.90
1570;DHT22;778;50.120;8.698;2022-09-16T16:40:13;15.90;99.90
1570;DHT22;778;50.120;8.698;2022-09-16T16:42:43;16.00;99.90
1570;DHT22;778;50.120;8.698;2022-09-16T16:45:11;15.90;99.90
1570;DHT22;778;50.120;8.698;2022-09-16T16:47:41;15.90;99.90
1570;DHT22;778;50.120;8.698;2022-09-16T16:50:10;15.90;99.90
1570;DHT22;778;50.120;8.698;2022-09-16T16:52:38;15.80;99.90
1570;DHT22;778;50.120;8.698;2022-09-16T16:55:08;15.60;99.90
1570;DHT22;778;50.120;8.698;2022-09-16T16:57:36;15.40;99.90
1570;DHT22;778;50.120;8.698;2022-09-16T17:00:07;15.50;99.90
1570;DHT22;778;50.120;8.698;2022-09-16T17:02:36;15.50;99.90
1570;DHT22;778;50.120;8.698;2022-09-16T17:05:06;15.40;99.90
1570;DHT22;778;50.120;8.698;2022-09-16T17:07:34;15.50;99.90
1570;DHT22;778;50.120;8.698;2022-09-16T17:10:03;15.40;99.90
1570;DHT22;778;50.120;8.698;2022-09-16T17:12:31;15.30;99.90
1570;DHT22;778;50.120;8.698;2022-09-16T17:15:00;15.40;99.90
1570;DHT22;778;50.120;8.698;2022-09-16T17:17:30;15.20;99.90
1570;DHT22;778;50.120;8.698;2022-09-16T17:19:58;15.20;99.90
1570;DHT22;778;50.120;8.698;2022-09-16T17:22:27;15.20;99.90
1570;DHT22;778;50.120;8.698;2022-09-16T17:24:55;15.20;99.90